sensor_id;sensor_type;location;lat;lon;timestamp;temperature;humidity
66962;HTU21D;53897;51.126;5.868;2022-12-18T00:00:47;21.02;29.07
66962;HTU21D;53897;51.126;5.868;2022-12-18T00:03:14;21.00;29.09
66962;HTU21D;53897;51.126;5.868;2022-12-18T00:05:50;20.96;29.01
66962;HTU21D;53897;51.126;5.868;2022-12-18T00:08:17;20.92;29.01
66962;HTU21D;53897;51.126;5.868;2022-12-18T00:10:44;20.90;28.97
66962;HTU21D;53897;51.126;5.868;2022-12-18T00:13:10;20.88;28.92
66962;HTU21D;53897;51.126;5.868;2022-12-18T00:15:37;20.85;28.90
66962;HTU21D;53897;51.126;5.868;2022-12-18T00:18:03;20.83;28.87
66962;HTU21D;53897;51.126;5.868;2022-12-18T00:20:30;20.79;28.86
66962;HTU21D;53897;51.126;5.868;2022-12-18T00:22:56;20.77;28.81
66962;HTU21D;53897;51.126;5.868;2022-12-18T00:25:22;20.74;28.78
66962;HTU21D;53897;51.126;5.868;2022-12-18T00:27:48;20.73;28.77
66962;HTU21D;53897;51.126;5.868;2022-12-18T00:30:13;20.71;28.76
66962;HTU21D;53897;51.126;5.868;2022-12-18T00:32:40;20.66;28.72
66962;HTU21D;53897;51.126;5.868;2022-12-18T00:35:06;20.64;28.73
66962;HTU21D;53897;51.126;5.868;2022-12-18T00:37:35;20.62;28.67
66962;HTU21D;53897;51.126;5.868;2022-12-18T00:40:02;20.59;28.67
66962;HTU21D;53897;51.126;5.868;2022-12-18T00:42:28;20.56;28.63
66962;HTU21D;53897;51.126;5.868;2022-12-18T00:45:12;20.53;28.61
66962;HTU21D;53897;51.126;5.868;2022-12-18T00:47:38;20.50;28.57
66962;HTU21D;53897;51.126;5.868;2022-12-18T00:50:04;20.48;28.52
66962;HTU21D;53897;51.126;5.868;2022-12-18T00:52:30;20.45;28.52
66962;HTU21D;53897;51.126;5.868;2022-12-18T00:54:56;20.44;28.51
66962;HTU21D;53897;51.126;5.868;2022-12-18T00:57:21;20.42;28.48
66962;HTU21D;53897;51.126;5.868;2022-12-18T00:59:47;20.39;28.45
66962;HTU21D;53897;51.126;5.868;2022-12-18T01:02:13;20.36;28.44
66962;HTU21D;53897;51.126;5.868;2022-12-18T01:04:39;20.35;28.40
66962;HTU21D;53897;51.126;5.868;2022-12-18T01:07:04;20.31;28.39
66962;HTU21D;53897;51.126;5.868;2022-12-18T01:09:30;20.30;28.34
66962;HTU21D;53897;51.126;5.868;2022-12-18T01:11:56;20.28;28.34
66962;HTU21D;53897;51.126;5.868;2022-12-18T01:14:22;20.26;28.37
66962;HTU21D;53897;51.126;5.868;2022-12-18T01:16:47;20.21;28.32
66962;HTU21D;53897;51.126;5.868;2022-12-18T01:19:13;20.19;28.32
66962;HTU21D;53897;51.126;5.868;2022-12-18T01:21:39;20.17;28.31
66962;HTU21D;53897;51.126;5.868;2022-12-18T01:24:05;20.15;28.25
66962;HTU21D;53897;51.126;5.868;2022-12-18T01:26:31;20.14;28.25
66962;HTU21D;53897;51.126;5.868;2022-12-18T01:28:57;20.12;28.23
66962;HTU21D;53897;51.126;5.868;2022-12-18T01:31:26;20.07;28.21
66962;HTU21D;53897;51.126;5.868;2022-12-18T01:33:54;20.06;28.19
66962;HTU21D;53897;51.126;5.868;2022-12-18T01:36:26;20.04;28.22
66962;HTU21D;53897;51.126;5.868;2022-12-18T01:38:52;20.02;28.21
66962;HTU21D;53897;51.126;5.868;2022-12-18T01:41:22;19.98;28.18
66962;HTU21D;53897;51.126;5.868;2022-12-18T01:43:54;19.96;28.18
66962;HTU21D;53897;51.126;5.868;2022-12-18T01:46:22;19.96;28.13
66962;HTU21D;53897;51.126;5.868;2022-12-18T01:48:56;19.95;28.09
66962;HTU21D;53897;51.126;5.868;2022-12-18T01:51:25;19.90;28.04
66962;HTU21D;53897;51.126;5.868;2022-12-18T01:53:52;19.89;28.03
66962;HTU21D;53897;51.126;5.868;2022-12-18T01:56:20;19.86;28.00
66962;HTU21D;53897;51.126;5.868;2022-12-18T01:58:56;19.84;27.97
66962;HTU21D;53897;51.126;5.868;2022-12-18T02:01:25;19.84;27.90
66962;HTU21D;53897;51.126;5.868;2022-12-18T02:03:51;19.81;27.91
66962;HTU21D;53897;51.126;5.868;2022-12-18T02:06:36;19.80;27.91
66962;HTU21D;53897;51.126;5.868;2022-12-18T02:09:12;19.76;27.87
66962;HTU21D;53897;51.126;5.868;2022-12-18T02:11:58;19.74;27.89
66962;HTU21D;53897;51.126;5.868;2022-12-18T02:14:38;19.71;27.87
66962;HTU21D;53897;51.126;5.868;2022-12-18T02:17:18;19.69;27.88
66962;HTU21D;53897;51.126;5.868;2022-12-18T02:28:23;19.61;27.84
66962;HTU21D;53897;51.126;5.868;2022-12-18T02:30:56;19.58;27.85
66962;HTU21D;53897;51.126;5.868;2022-12-18T02:33:27;19.57;27.81
66962;HTU21D;53897;51.126;5.868;2022-12-18T02:35:58;19.55;27.76
66962;HTU21D;53897;51.126;5.868;2022-12-18T02:38:25;19.53;27.77
66962;HTU21D;53897;51.126;5.868;2022-12-18T02:40:53;19.52;27.76
66962;HTU21D;53897;51.126;5.868;2022-12-18T02:43:19;19.50;27.75
66962;HTU21D;53897;51.126;5.868;2022-12-18T02:45:58;19.48;27.74
66962;HTU21D;53897;51.126;5.868;2022-12-18T02:48:32;19.46;27.81
66962;HTU21D;53897;51.126;5.868;2022-12-18T02:54:07;19.44;27.91
66962;HTU21D;53897;51.126;5.868;2022-12-18T02:56:41;19.45;28.01
66962;HTU21D;53897;51.126;5.868;2022-12-18T02:59:15;19.47;28.16
66962;HTU21D;53897;51.126;5.868;2022-12-18T03:01:58;19.50;28.29
66962;HTU21D;53897;51.126;5.868;2022-12-18T03:04:46;19.55;28.33
66962;HTU21D;53897;51.126;5.868;2022-12-18T03:07:34;19.59;28.34
66962;HTU21D;53897;51.126;5.868;2022-12-18T03:10:01;19.63;28.33
66962;HTU21D;53897;51.126;5.868;2022-12-18T03:12:35;19.68;28.27
66962;HTU21D;53897;51.126;5.868;2022-12-18T03:17:33;19.79;28.20
66962;HTU21D;53897;51.126;5.868;2022-12-18T03:20:05;19.82;28.15
66962;HTU21D;53897;51.126;5.868;2022-12-18T03:22:37;19.85;28.09
66962;HTU21D;53897;51.126;5.868;2022-12-18T03:25:07;19.89;28.03
66962;HTU21D;53897;51.126;5.868;2022-12-18T03:27:42;19.94;27.96
66962;HTU21D;53897;51.126;5.868;2022-12-18T03:30:14;19.97;27.91
66962;HTU21D;53897;51.126;5.868;2022-12-18T03:32:50;19.98;27.82
66962;HTU21D;53897;51.126;5.868;2022-12-18T03:35:24;20.01;27.78
66962;HTU21D;53897;51.126;5.868;2022-12-18T03:37:50;20.03;27.76
66962;HTU21D;53897;51.126;5.868;2022-12-18T03:40:20;20.05;27.69
66962;HTU21D;53897;51.126;5.868;2022-12-18T03:43:07;20.07;27.65
66962;HTU21D;53897;51.126;5.868;2022-12-18T03:45:40;20.07;27.58
66962;HTU21D;53897;51.126;5.868;2022-12-18T03:48:17;20.10;27.57
66962;HTU21D;53897;51.126;5.868;2022-12-18T03:50:57;20.11;27.52
66962;HTU21D;53897;51.126;5.868;2022-12-18T03:53:35;20.11;27.48
66962;HTU21D;53897;51.126;5.868;2022-12-18T03:56:04;20.11;27.40
66962;HTU21D;53897;51.126;5.868;2022-12-18T03:58:38;20.13;27.36
66962;HTU21D;53897;51.126;5.868;2022-12-18T04:01:28;20.14;27.25
66962;HTU21D;53897;51.126;5.868;2022-12-18T04:04:00;20.14;27.25
66962;HTU21D;53897;51.126;5.868;2022-12-18T04:06:30;20.13;27.25
66962;HTU21D;53897;51.126;5.868;2022-12-18T04:08:57;20.13;27.24
66962;HTU21D;53897;51.126;5.868;2022-12-18T04:11:25;20.13;27.25
66962;HTU21D;53897;51.126;5.868;2022-12-18T04:13:55;20.11;27.20
66962;HTU21D;53897;51.126;5.868;2022-12-18T04:16:24;20.12;27.18
66962;HTU21D;53897;51.126;5.868;2022-12-18T04:18:53;20.11;27.16
66962;HTU21D;53897;51.126;5.868;2022-12-18T04:21:20;20.11;27.14
66962;HTU21D;53897;51.126;5.868;2022-12-18T04:23:48;20.10;27.10
66962;HTU21D;53897;51.126;5.868;2022-12-18T04:26:14;20.09;27.12
66962;HTU21D;53897;51.126;5.868;2022-12-18T04:29:07;20.07;27.10
66962;HTU21D;53897;51.126;5.868;2022-12-18T04:31:32;20.05;27.10
66962;HTU21D;53897;51.126;5.868;2022-12-18T04:33:58;20.05;27.09
66962;HTU21D;53897;51.126;5.868;2022-12-18T04:36:24;20.03;27.10
66962;HTU21D;53897;51.126;5.868;2022-12-18T04:38:51;20.04;27.07
66962;HTU21D;53897;51.126;5.868;2022-12-18T04:41:18;20.01;27.05
66962;HTU21D;53897;51.126;5.868;2022-12-18T04:43:46;20.00;27.04
66962;HTU21D;53897;51.126;5.868;2022-12-18T04:46:12;19.99;27.01
66962;HTU21D;53897;51.126;5.868;2022-12-18T04:48:38;19.97;27.00
66962;HTU21D;53897;51.126;5.868;2022-12-18T04:51:05;19.96;26.98
66962;HTU21D;53897;51.126;5.868;2022-12-18T04:53:31;19.94;26.94
66962;HTU21D;53897;51.126;5.868;2022-12-18T04:56:08;19.92;26.97
66962;HTU21D;53897;51.126;5.868;2022-12-18T04:58:35;19.89;26.95
66962;HTU21D;53897;51.126;5.868;2022-12-18T05:01:01;19.88;26.94
66962;HTU21D;53897;51.126;5.868;2022-12-18T05:03:29;19.86;26.94
66962;HTU21D;53897;51.126;5.868;2022-12-18T05:05:54;19.84;26.91
66962;HTU21D;53897;51.126;5.868;2022-12-18T05:08:20;19.82;26.90
66962;HTU21D;53897;51.126;5.868;2022-12-18T05:10:46;19.81;26.91
66962;HTU21D;53897;51.126;5.868;2022-12-18T05:13:12;19.81;26.91
66962;HTU21D;53897;51.126;5.868;2022-12-18T05:15:37;19.79;26.92
66962;HTU21D;53897;51.126;5.868;2022-12-18T05:18:04;19.76;26.90
66962;HTU21D;53897;51.126;5.868;2022-12-18T05:20:30;19.74;26.89
66962;HTU21D;53897;51.126;5.868;2022-12-18T05:22:56;19.73;26.89
66962;HTU21D;53897;51.126;5.868;2022-12-18T05:25:22;19.71;26.86
66962;HTU21D;53897;51.126;5.868;2022-12-18T05:27:48;19.69;26.84
66962;HTU21D;53897;51.126;5.868;2022-12-18T05:30:15;19.67;26.81
66962;HTU21D;53897;51.126;5.868;2022-12-18T05:32:42;19.66;26.84
66962;HTU21D;53897;51.126;5.868;2022-12-18T05:35:09;19.65;26.84
66962;HTU21D;53897;51.126;5.868;2022-12-18T05:37:35;19.65;26.81
66962;HTU21D;53897;51.126;5.868;2022-12-18T05:40:03;19.62;26.75
66962;HTU21D;53897;51.126;5.868;2022-12-18T05:42:29;19.61;26.55
66962;HTU21D;53897;51.126;5.868;2022-12-18T05:44:54;19.59;26.78
66962;HTU21D;53897;51.126;5.868;2022-12-18T05:47:20;19.58;26.92
66962;HTU21D;53897;51.126;5.868;2022-12-18T05:49:46;19.58;27.04
66962;HTU21D;53897;51.126;5.868;2022-12-18T05:52:12;19.58;27.08
66962;HTU21D;53897;51.126;5.868;2022-12-18T05:54:37;19.56;27.03
66962;HTU21D;53897;51.126;5.868;2022-12-18T05:57:03;19.57;27.06
66962;HTU21D;53897;51.126;5.868;2022-12-18T05:59:28;19.56;27.06
66962;HTU21D;53897;51.126;5.868;2022-12-18T06:01:54;19.56;26.99
66962;HTU21D;53897;51.126;5.868;2022-12-18T06:04:20;19.54;27.04
66962;HTU21D;53897;51.126;5.868;2022-12-18T06:06:46;19.51;27.05
66962;HTU21D;53897;51.126;5.868;2022-12-18T06:09:11;19.50;27.07
66962;HTU21D;53897;51.126;5.868;2022-12-18T06:11:37;19.47;27.11
66962;HTU21D;53897;51.126;5.868;2022-12-18T06:14:05;19.46;27.13
66962;HTU21D;53897;51.126;5.868;2022-12-18T06:16:31;19.44;27.13
66962;HTU21D;53897;51.126;5.868;2022-12-18T06:18:58;19.43;27.16
66962;HTU21D;53897;51.126;5.868;2022-12-18T06:21:24;19.42;27.21
66962;HTU21D;53897;51.126;5.868;2022-12-18T06:23:50;19.39;27.28
66962;HTU21D;53897;51.126;5.868;2022-12-18T06:26:15;19.38;27.39
66962;HTU21D;53897;51.126;5.868;2022-12-18T06:28:41;19.38;27.50
66962;HTU21D;53897;51.126;5.868;2022-12-18T06:31:07;19.39;27.59
66962;HTU21D;53897;51.126;5.868;2022-12-18T06:33:34;19.43;27.68
66962;HTU21D;53897;51.126;5.868;2022-12-18T06:38:28;19.51;27.81
66962;HTU21D;53897;51.126;5.868;2022-12-18T06:40:54;19.57;27.83
66962;HTU21D;53897;51.126;5.868;2022-12-18T06:43:19;19.67;27.90
66962;HTU21D;53897;51.126;5.868;2022-12-18T06:45:45;19.76;27.89
66962;HTU21D;53897;51.126;5.868;2022-12-18T06:48:14;19.87;27.84
66962;HTU21D;53897;51.126;5.868;2022-12-18T06:50:42;19.97;27.71
66962;HTU21D;53897;51.126;5.868;2022-12-18T06:53:08;20.04;27.57
66962;HTU21D;53897;51.126;5.868;2022-12-18T06:55:34;20.11;27.50
66962;HTU21D;53897;51.126;5.868;2022-12-18T06:57:59;20.16;27.49
66962;HTU21D;53897;51.126;5.868;2022-12-18T07:00:25;20.21;27.48
66962;HTU21D;53897;51.126;5.868;2022-12-18T07:02:50;20.27;27.48
66962;HTU21D;53897;51.126;5.868;2022-12-18T07:05:16;20.32;27.45
66962;HTU21D;53897;51.126;5.868;2022-12-18T07:07:42;20.37;27.41
66962;HTU21D;53897;51.126;5.868;2022-12-18T07:10:08;20.43;27.44
66962;HTU21D;53897;51.126;5.868;2022-12-18T07:12:34;20.50;27.49
66962;HTU21D;53897;51.126;5.868;2022-12-18T07:14:59;20.57;27.48
66962;HTU21D;53897;51.126;5.868;2022-12-18T07:17:25;20.63;27.42
66962;HTU21D;53897;51.126;5.868;2022-12-18T07:19:51;20.71;27.45
66962;HTU21D;53897;51.126;5.868;2022-12-18T07:22:16;20.73;27.44
66962;HTU21D;53897;51.126;5.868;2022-12-18T07:24:42;20.77;27.43
66962;HTU21D;53897;51.126;5.868;2022-12-18T07:27:08;20.81;27.36
66962;HTU21D;53897;51.126;5.868;2022-12-18T07:29:34;20.83;27.28
66962;HTU21D;53897;51.126;5.868;2022-12-18T07:31:59;20.87;27.22
66962;HTU21D;53897;51.126;5.868;2022-12-18T07:34:25;20.90;27.34
66962;HTU21D;53897;51.126;5.868;2022-12-18T07:36:51;20.91;27.39
66962;HTU21D;53897;51.126;5.868;2022-12-18T07:39:17;20.94;27.34
66962;HTU21D;53897;51.126;5.868;2022-12-18T07:41:42;20.96;27.36
66962;HTU21D;53897;51.126;5.868;2022-12-18T07:44:12;20.98;27.17
66962;HTU21D;53897;51.126;5.868;2022-12-18T07:46:38;20.99;27.20
66962;HTU21D;53897;51.126;5.868;2022-12-18T07:49:04;21.01;27.15
66962;HTU21D;53897;51.126;5.868;2022-12-18T07:51:30;21.01;27.09
66962;HTU21D;53897;51.126;5.868;2022-12-18T07:53:56;21.02;27.16
66962;HTU21D;53897;51.126;5.868;2022-12-18T07:56:22;21.03;27.55
66962;HTU21D;53897;51.126;5.868;2022-12-18T07:58:48;21.00;27.75
66962;HTU21D;53897;51.126;5.868;2022-12-18T08:01:13;20.98;27.78
66962;HTU21D;53897;51.126;5.868;2022-12-18T08:03:40;20.95;27.66
66962;HTU21D;53897;51.126;5.868;2022-12-18T08:06:08;20.93;27.63
66962;HTU21D;53897;51.126;5.868;2022-12-18T08:08:35;20.93;27.73
66962;HTU21D;53897;51.126;5.868;2022-12-18T08:11:01;20.93;27.81
66962;HTU21D;53897;51.126;5.868;2022-12-18T08:13:27;20.92;27.87
66962;HTU21D;53897;51.126;5.868;2022-12-18T08:16:02;20.95;28.00
66962;HTU21D;53897;51.126;5.868;2022-12-18T08:18:29;20.98;28.11
66962;HTU21D;53897;51.126;5.868;2022-12-18T08:20:55;21.00;28.17
66962;HTU21D;53897;51.126;5.868;2022-12-18T08:23:22;21.02;28.01
66962;HTU21D;53897;51.126;5.868;2022-12-18T08:25:47;21.03;28.13
66962;HTU21D;53897;51.126;5.868;2022-12-18T08:28:13;21.08;28.19
66962;HTU21D;53897;51.126;5.868;2022-12-18T08:30:42;21.13;28.19
66962;HTU21D;53897;51.126;5.868;2022-12-18T08:33:08;21.16;28.18
66962;HTU21D;53897;51.126;5.868;2022-12-18T08:35:37;21.21;28.12
66962;HTU21D;53897;51.126;5.868;2022-12-18T08:38:03;21.25;28.06
66962;HTU21D;53897;51.126;5.868;2022-12-18T08:40:29;21.30;27.98
66962;HTU21D;53897;51.126;5.868;2022-12-18T08:42:54;21.34;27.94
66962;HTU21D;53897;51.126;5.868;2022-12-18T08:45:39;21.38;27.92
66962;HTU21D;53897;51.126;5.868;2022-12-18T08:48:05;21.42;27.90
66962;HTU21D;53897;51.126;5.868;2022-12-18T08:50:30;21.45;27.71
66962;HTU21D;53897;51.126;5.868;2022-12-18T08:52:56;21.47;27.45
66962;HTU21D;53897;51.126;5.868;2022-12-18T08:55:22;21.48;27.52
66962;HTU21D;53897;51.126;5.868;2022-12-18T08:57:48;21.47;27.63
66962;HTU21D;53897;51.126;5.868;2022-12-18T09:00:15;21.47;27.66
66962;HTU21D;53897;51.126;5.868;2022-12-18T09:02:41;21.48;27.73
66962;HTU21D;53897;51.126;5.868;2022-12-18T09:05:06;21.47;27.57
66962;HTU21D;53897;51.126;5.868;2022-12-18T09:07:32;21.50;27.44
66962;HTU21D;53897;51.126;5.868;2022-12-18T09:09:58;21.50;27.40
66962;HTU21D;53897;51.126;5.868;2022-12-18T09:12:23;21.52;27.33
66962;HTU21D;53897;51.126;5.868;2022-12-18T09:14:49;21.52;27.26
66962;HTU21D;53897;51.126;5.868;2022-12-18T09:17:15;21.53;27.33
66962;HTU21D;53897;51.126;5.868;2022-12-18T09:19:40;21.55;27.29
66962;HTU21D;53897;51.126;5.868;2022-12-18T09:22:06;21.54;27.39
66962;HTU21D;53897;51.126;5.868;2022-12-18T09:24:32;21.57;27.36
66962;HTU21D;53897;51.126;5.868;2022-12-18T09:26:58;21.55;27.29
66962;HTU21D;53897;51.126;5.868;2022-12-18T09:29:24;21.55;27.21
66962;HTU21D;53897;51.126;5.868;2022-12-18T09:31:50;21.55;27.19
66962;HTU21D;53897;51.126;5.868;2022-12-18T09:34:16;21.55;27.21
66962;HTU21D;53897;51.126;5.868;2022-12-18T09:36:42;21.55;27.39
66962;HTU21D;53897;51.126;5.868;2022-12-18T09:39:07;21.54;27.39
66962;HTU21D;53897;51.126;5.868;2022-12-18T09:44:17;21.55;27.47
66962;HTU21D;53897;51.126;5.868;2022-12-18T09:47:10;21.58;27.61
66962;HTU21D;53897;51.126;5.868;2022-12-18T09:49:43;21.58;27.78
66962;HTU21D;53897;51.126;5.868;2022-12-18T09:55:00;21.62;28.23
66962;HTU21D;53897;51.126;5.868;2022-12-18T09:57:31;21.63;28.40
66962;HTU21D;53897;51.126;5.868;2022-12-18T10:00:06;21.65;28.39
66962;HTU21D;53897;51.126;5.868;2022-12-18T10:02:37;21.70;28.44
66962;HTU21D;53897;51.126;5.868;2022-12-18T10:08:18;21.76;28.78
66962;HTU21D;53897;51.126;5.868;2022-12-18T10:10:50;21.78;28.87
66962;HTU21D;53897;51.126;5.868;2022-12-18T10:13:31;21.82;28.93
66962;HTU21D;53897;51.126;5.868;2022-12-18T10:16:24;21.83;29.06
66962;HTU21D;53897;51.126;5.868;2022-12-18T10:21:48;21.89;29.07
66962;HTU21D;53897;51.126;5.868;2022-12-18T10:26:43;21.90;29.33
66962;HTU21D;53897;51.126;5.868;2022-12-18T10:29:15;21.91;29.52
66962;HTU21D;53897;51.126;5.868;2022-12-18T10:31:41;21.91;29.37
66962;HTU21D;53897;51.126;5.868;2022-12-18T10:34:11;21.91;30.13
66962;HTU21D;53897;51.126;5.868;2022-12-18T10:36:37;21.92;30.29
66962;HTU21D;53897;51.126;5.868;2022-12-18T10:39:23;21.92;30.56
66962;HTU21D;53897;51.126;5.868;2022-12-18T10:41:49;21.92;30.74
66962;HTU21D;53897;51.126;5.868;2022-12-18T10:44:20;21.92;30.79
66962;HTU21D;53897;51.126;5.868;2022-12-18T10:46:49;21.90;30.80
66962;HTU21D;53897;51.126;5.868;2022-12-18T10:49:28;21.89;30.64
66962;HTU21D;53897;51.126;5.868;2022-12-18T10:52:24;21.89;30.45
66962;HTU21D;53897;51.126;5.868;2022-12-18T10:55:03;21.87;30.05
66962;HTU21D;53897;51.126;5.868;2022-12-18T10:57:36;21.82;29.85
66962;HTU21D;53897;51.126;5.868;2022-12-18T11:02:47;21.70;29.18
66962;HTU21D;53897;51.126;5.868;2022-12-18T11:05:42;21.67;28.82
66962;HTU21D;53897;51.126;5.868;2022-12-18T11:08:20;21.64;28.61
66962;HTU21D;53897;51.126;5.868;2022-12-18T11:10:48;21.59;28.29
66962;HTU21D;53897;51.126;5.868;2022-12-18T11:13:23;21.58;27.68
66962;HTU21D;53897;51.126;5.868;2022-12-18T11:15:50;21.55;27.57
66962;HTU21D;53897;51.126;5.868;2022-12-18T11:18:24;21.52;27.51
66962;HTU21D;53897;51.126;5.868;2022-12-18T11:20:59;21.53;27.40
66962;HTU21D;53897;51.126;5.868;2022-12-18T11:23:27;21.53;27.42
66962;HTU21D;53897;51.126;5.868;2022-12-18T11:25:59;21.55;27.29
66962;HTU21D;53897;51.126;5.868;2022-12-18T11:31:16;21.60;27.23
66962;HTU21D;53897;51.126;5.868;2022-12-18T11:36:38;21.69;27.51
66962;HTU21D;53897;51.126;5.868;2022-12-18T11:39:28;21.76;27.52
66962;HTU21D;53897;51.126;5.868;2022-12-18T11:42:24;21.82;27.50
66962;HTU21D;53897;51.126;5.868;2022-12-18T11:44:53;21.88;27.46
66962;HTU21D;53897;51.126;5.868;2022-12-18T11:47:42;21.91;27.59
66962;HTU21D;53897;51.126;5.868;2022-12-18T11:50:23;21.94;28.10
66962;HTU21D;53897;51.126;5.868;2022-12-18T11:52:49;21.97;28.16
66962;HTU21D;53897;51.126;5.868;2022-12-18T11:55:30;21.99;28.11
66962;HTU21D;53897;51.126;5.868;2022-12-18T12:00:26;22.01;27.98
66962;HTU21D;53897;51.126;5.868;2022-12-18T12:08:27;22.03;27.59
66962;HTU21D;53897;51.126;5.868;2022-12-18T12:21:41;21.97;26.99
66962;HTU21D;53897;51.126;5.868;2022-12-18T12:30:20;21.91;27.10
66962;HTU21D;53897;51.126;5.868;2022-12-18T12:38:24;21.82;26.66
66962;HTU21D;53897;51.126;5.868;2022-12-18T12:41:01;21.79;26.84
66962;HTU21D;53897;51.126;5.868;2022-12-18T12:46:05;21.77;26.97
66962;HTU21D;53897;51.126;5.868;2022-12-18T12:48:42;21.77;27.10
66962;HTU21D;53897;51.126;5.868;2022-12-18T12:51:22;21.78;27.17
66962;HTU21D;53897;51.126;5.868;2022-12-18T12:53:49;21.76;27.30
66962;HTU21D;53897;51.126;5.868;2022-12-18T12:56:18;21.79;27.44
66962;HTU21D;53897;51.126;5.868;2022-12-18T12:58:58;21.80;27.54
66962;HTU21D;53897;51.126;5.868;2022-12-18T13:09:01;21.90;27.82
66962;HTU21D;53897;51.126;5.868;2022-12-18T13:14:38;21.96;27.80
66962;HTU21D;53897;51.126;5.868;2022-12-18T13:19:51;22.05;27.74
66962;HTU21D;53897;51.126;5.868;2022-12-18T13:22:29;22.06;27.73
66962;HTU21D;53897;51.126;5.868;2022-12-18T13:24:56;22.09;27.68
66962;HTU21D;53897;51.126;5.868;2022-12-18T13:35:51;22.16;27.44
66962;HTU21D;53897;51.126;5.868;2022-12-18T13:40:58;22.18;27.34
66962;HTU21D;53897;51.126;5.868;2022-12-18T13:43:45;22.19;27.34
66962;HTU21D;53897;51.126;5.868;2022-12-18T13:47:04;22.18;27.25
66962;HTU21D;53897;51.126;5.868;2022-12-18T13:52:02;22.18;27.20
66962;HTU21D;53897;51.126;5.868;2022-12-18T13:54:40;0.00;27.16
66962;HTU21D;53897;51.126;5.868;2022-12-18T13:57:33;22.16;27.20
66962;HTU21D;53897;51.126;5.868;2022-12-18T14:00:26;22.16;27.13
66962;HTU21D;53897;51.126;5.868;2022-12-18T14:02:55;22.17;27.07
66962;HTU21D;53897;51.126;5.868;2022-12-18T14:05:36;22.14;27.15
66962;HTU21D;53897;51.126;5.868;2022-12-18T14:08:10;22.14;27.25
66962;HTU21D;53897;51.126;5.868;2022-12-18T14:10:45;22.11;27.49
66962;HTU21D;53897;51.126;5.868;2022-12-18T14:13:24;22.11;27.62
66962;HTU21D;53897;51.126;5.868;2022-12-18T14:15:53;22.09;27.93
66962;HTU21D;53897;51.126;5.868;2022-12-18T14:21:06;22.10;28.67
66962;HTU21D;53897;51.126;5.868;2022-12-18T14:23:41;22.09;29.63
66962;HTU21D;53897;51.126;5.868;2022-12-18T14:26:30;22.10;30.49
66962;HTU21D;53897;51.126;5.868;2022-12-18T14:28:58;22.11;30.70
66962;HTU21D;53897;51.126;5.868;2022-12-18T14:31:29;22.11;30.83
66962;HTU21D;53897;51.126;5.868;2022-12-18T14:33:55;22.10;30.80
66962;HTU21D;53897;51.126;5.868;2022-12-18T14:36:24;22.07;30.85
66962;HTU21D;53897;51.126;5.868;2022-12-18T14:38:52;22.06;30.87
66962;HTU21D;53897;51.126;5.868;2022-12-18T14:41:20;22.07;30.80
66962;HTU21D;53897;51.126;5.868;2022-12-18T14:43:49;22.10;30.80
66962;HTU21D;53897;51.126;5.868;2022-12-18T14:49:03;22.14;30.71
66962;HTU21D;53897;51.126;5.868;2022-12-18T14:51:32;22.20;30.67
66962;HTU21D;53897;51.126;5.868;2022-12-18T14:54:05;22.21;30.23
66962;HTU21D;53897;51.126;5.868;2022-12-18T14:56:46;22.22;30.16
66962;HTU21D;53897;51.126;5.868;2022-12-18T14:59:16;22.23;30.19
66962;HTU21D;53897;51.126;5.868;2022-12-18T15:04:35;22.20;30.10
66962;HTU21D;53897;51.126;5.868;2022-12-18T15:07:10;22.19;30.25
66962;HTU21D;53897;51.126;5.868;2022-12-18T15:09:38;22.18;30.26
66962;HTU21D;53897;51.126;5.868;2022-12-18T15:12:37;22.19;30.22
66962;HTU21D;53897;51.126;5.868;2022-12-18T15:15:05;22.17;30.20
66962;HTU21D;53897;51.126;5.868;2022-12-18T15:17:57;22.18;29.98
66962;HTU21D;53897;51.126;5.868;2022-12-18T15:20:23;22.16;30.09
66962;HTU21D;53897;51.126;5.868;2022-12-18T15:22:49;22.14;30.17
66962;HTU21D;53897;51.126;5.868;2022-12-18T15:25:32;22.12;30.29
66962;HTU21D;53897;51.126;5.868;2022-12-18T15:27:59;22.11;30.32
66962;HTU21D;53897;51.126;5.868;2022-12-18T15:30:26;22.12;30.08
66962;HTU21D;53897;51.126;5.868;2022-12-18T15:33:24;22.12;29.97
66962;HTU21D;53897;51.126;5.868;2022-12-18T15:35:58;22.10;29.96
66962;HTU21D;53897;51.126;5.868;2022-12-18T15:38:25;22.10;29.67
66962;HTU21D;53897;51.126;5.868;2022-12-18T15:40:52;22.09;29.54
66962;HTU21D;53897;51.126;5.868;2022-12-18T15:43:22;22.08;29.66
66962;HTU21D;53897;51.126;5.868;2022-12-18T15:46:05;22.08;29.80
66962;HTU21D;53897;51.126;5.868;2022-12-18T15:48:40;22.07;30.03
66962;HTU21D;53897;51.126;5.868;2022-12-18T15:51:15;22.08;30.16
66962;HTU21D;53897;51.126;5.868;2022-12-18T15:53:41;22.06;30.29
66962;HTU21D;53897;51.126;5.868;2022-12-18T15:56:12;22.06;30.31
66962;HTU21D;53897;51.126;5.868;2022-12-18T15:58:56;22.03;30.33
66962;HTU21D;53897;51.126;5.868;2022-12-18T16:01:25;22.01;30.35
66962;HTU21D;53897;51.126;5.868;2022-12-18T16:03:51;22.03;30.19
66962;HTU21D;53897;51.126;5.868;2022-12-18T16:06:17;22.01;29.84
66962;HTU21D;53897;51.126;5.868;2022-12-18T16:08:43;21.99;30.02
66962;HTU21D;53897;51.126;5.868;2022-12-18T16:11:22;21.97;29.89
66962;HTU21D;53897;51.126;5.868;2022-12-18T16:14:24;21.95;29.88
66962;HTU21D;53897;51.126;5.868;2022-12-18T16:17:06;21.90;29.93
66962;HTU21D;53897;51.126;5.868;2022-12-18T16:19:34;21.85;29.92
66962;HTU21D;53897;51.126;5.868;2022-12-18T16:21:59;21.83;29.80
66962;HTU21D;53897;51.126;5.868;2022-12-18T16:24:29;21.81;29.88
66962;HTU21D;53897;51.126;5.868;2022-12-18T16:26:57;21.77;29.88
66962;HTU21D;53897;51.126;5.868;2022-12-18T16:29:25;21.74;30.16
66962;HTU21D;53897;51.126;5.868;2022-12-18T16:32:01;21.74;30.34
66962;HTU21D;53897;51.126;5.868;2022-12-18T16:34:32;21.72;30.45
66962;HTU21D;53897;51.126;5.868;2022-12-18T16:37:01;21.75;30.52
66962;HTU21D;53897;51.126;5.868;2022-12-18T16:39:27;21.77;30.71
66962;HTU21D;53897;51.126;5.868;2022-12-18T16:41:54;21.81;30.75
66962;HTU21D;53897;51.126;5.868;2022-12-18T16:44:20;21.87;30.86
66962;HTU21D;53897;51.126;5.868;2022-12-18T16:46:46;21.91;31.00
66962;HTU21D;53897;51.126;5.868;2022-12-18T16:49:15;21.96;31.08
66962;HTU21D;53897;51.126;5.868;2022-12-18T16:51:41;22.03;31.12
66962;HTU21D;53897;51.126;5.868;2022-12-18T16:54:07;22.09;31.14
66962;HTU21D;53897;51.126;5.868;2022-12-18T16:56:33;22.16;31.12
66962;HTU21D;53897;51.126;5.868;2022-12-18T16:59:01;22.21;31.08
66962;HTU21D;53897;51.126;5.868;2022-12-18T17:01:29;22.27;30.99
66962;HTU21D;53897;51.126;5.868;2022-12-18T17:04:03;22.34;30.91
66962;HTU21D;53897;51.126;5.868;2022-12-18T17:06:33;22.37;30.84
66962;HTU21D;53897;51.126;5.868;2022-12-18T17:09:01;22.42;30.77
66962;HTU21D;53897;51.126;5.868;2022-12-18T17:11:30;22.44;30.87
66962;HTU21D;53897;51.126;5.868;2022-12-18T17:13:57;22.50;31.22
66962;HTU21D;53897;51.126;5.868;2022-12-18T17:16:23;22.53;31.49
66962;HTU21D;53897;51.126;5.868;2022-12-18T17:18:51;22.55;31.48
66962;HTU21D;53897;51.126;5.868;2022-12-18T17:21:17;22.56;31.36